Time;durP1;ratioP1;P1;durP2;ratioP2;P2;SDS_P1;SDS_P2;PMS_P1;PMS_P2;Temp;Humidity;BMP_temperature;BMP_pressure;BME280_temperature;BME280_humidity;BME280_pressure;Samples;Min_cycle;Max_cycle;Signal;HPM_P1;HPM_P2
2021/04/22 00:01:33;;;;;;;15.87;9.53;;;11.00;74.80;;;;;;5108667;28;20210;-71
2021/04/22 00:04:00;;;;;;;19.57;10.10;;;11.00;74.90;;;;;;5109122;28;20471;-69
2021/04/22 00:06:26;;;;;;;18.73;10.80;;;10.90;74.90;;;;;;5108467;28;20950;-68
2021/04/22 00:08:51;;;;;;;20.30;9.47;;;10.90;75.50;;;;;;5095632;28;20420;-69
2021/04/22 00:11:17;;;;;;;14.97;9.33;;;10.90;75.80;;;;;;5108729;28;20440;-72
2021/04/22 00:13:45;;;;;;;14.90;8.77;;;11.00;75.40;;;;;;5108958;28;20662;-72
2021/04/22 00:16:11;;;;;;;15.97;9.50;;;11.10;75.50;;;;;;5092820;28;20681;-71
2021/04/22 00:18:36;;;;;;;18.00;9.97;;;11.10;75.20;;;;;;5087657;28;20429;-70
2021/04/22 00:21:03;;;;;;;17.37;9.93;;;11.10;74.90;;;;;;5090534;28;20487;-69
2021/04/22 00:23:28;;;;;;;17.60;9.53;;;11.10;74.60;;;;;;5104754;28;20223;-69
2021/04/22 00:25:54;;;;;;;14.37;9.30;;;11.00;74.60;;;;;;5107338;28;20746;-68
2021/04/22 00:28:20;;;;;;;18.30;9.70;;;11.10;74.80;;;;;;5112223;28;20221;-71
2021/04/22 00:30:46;;;;;;;16.23;10.20;;;11.00;74.20;;;;;;5112378;28;20436;-69
2021/04/22 00:33:15;;;;;;;14.57;9.40;;;10.90;74.80;;;;;;5112546;28;20424;-71
2021/04/22 00:35:42;;;;;;;17.63;10.53;;;10.90;74.80;;;;;;5112274;28;20514;-71
2021/04/22 00:38:08;;;;;;;16.97;9.83;;;10.90;74.60;;;;;;5110555;28;20514;-71
2021/04/22 00:40:36;;;;;;;17.80;11.40;;;10.90;75.10;;;;;;5112003;28;20451;-71
2021/04/22 00:43:04;;;;;;;20.30;10.10;;;11.10;74.80;;;;;;5102574;28;20513;-71
2021/04/22 00:45:30;;;;;;;15.27;10.00;;;11.20;73.70;;;;;;5092709;28;20440;-71
2021/04/22 00:47:56;;;;;;;19.30;11.40;;;11.40;73.00;;;;;;5105158;28;20432;-70
2021/04/22 00:50:28;;;;;;;16.33;9.53;;;11.50;72.90;;;;;;5106671;28;20436;-69
2021/04/22 00:52:56;;;;;;;16.17;10.40;;;11.60;72.00;;;;;;5111640;28;20273;-69
2021/04/22 00:55:22;;;;;;;21.50;11.93;;;11.70;71.30;;;;;;5112232;28;20435;-70
2021/04/22 00:57:48;;;;;;;18.70;10.67;;;11.90;70.40;;;;;;5111750;28;20431;-70
2021/04/22 01:00:17;;;;;;;17.93;10.67;;;11.90;70.40;;;;;;5108437;28;20460;-70
2021/04/22 01:02:45;;;;;;;16.47;10.60;;;12.00;70.40;;;;;;5101274;28;20464;-69
2021/04/22 01:05:39;;;;;;;18.67;11.83;;;12.10;72.00;;;;;;5112893;28;20416;-70
2021/04/22 01:08:05;;;;;;;18.77;10.80;;;12.20;72.70;;;;;;5113036;28;20420;-70
2021/04/22 01:10:31;;;;;;;17.40;11.30;;;12.20;73.70;;;;;;5113256;28;20447;-69
2021/04/22 01:12:57;;;;;;;21.17;12.30;;;12.20;74.90;;;;;;5112941;28;20899;-71
2021/04/22 01:15:25;;;;;;;21.30;12.40;;;12.20;76.70;;;;;;5113229;28;20432;-70
2021/04/22 01:17:52;;;;;;;17.97;12.00;;;12.20;77.40;;;;;;5110552;28;20247;-70
2021/04/22 01:20:27;;;;;;;27.07;12.57;;;12.20;77.30;;;;;;5092406;28;20820;-70
2021/04/22 01:22:54;;;;;;;22.97;13.20;;;12.00;78.60;;;;;;5104491;28;20464;-71
2021/04/22 01:25:32;;;;;;;20.50;12.90;;;11.80;80.90;;;;;;5091941;28;20429;-72
2021/04/22 01:27:59;;;;;;;25.77;13.53;;;11.60;82.80;;;;;;5096752;28;20417;-71
2021/04/22 01:30:50;;;;;;;23.67;12.23;;;11.60;84.40;;;;;;5102382;28;20801;-71
2021/04/22 01:33:20;;;;;;;25.27;13.03;;;11.50;82.80;;;;;;5101135;28;20451;-71
2021/04/22 01:35:50;;;;;;;25.60;13.63;;;11.40;81.90;;;;;;5099642;28;20976;-72
2021/04/22 01:38:16;;;;;;;22.47;13.10;;;11.40;83.40;;;;;;5095542;28;20801;-70
2021/04/22 01:40:43;;;;;;;24.77;13.90;;;11.40;84.10;;;;;;5093618;28;20522;-71
2021/04/22 01:43:09;;;;;;;24.00;13.30;;;11.40;86.30;;;;;;5102164;28;20474;-72
2021/04/22 01:45:36;;;;;;;25.00;14.50;;;11.40;87.30;;;;;;5112437;28;20432;-70
2021/04/22 01:48:02;;;;;;;25.13;13.73;;;11.20;88.30;;;;;;5112053;28;20453;-71
2021/04/22 01:50:31;;;;;;;29.07;14.30;;;11.20;88.60;;;;;;5097577;28;20449;-69
2021/04/22 01:52:57;;;;;;;25.13;13.73;;;11.20;89.00;;;;;;5112223;28;20425;-70
2021/04/22 01:55:28;;;;;;;26.10;14.13;;;11.30;89.20;;;;;;5111812;28;20892;-71
2021/04/22 01:57:54;;;;;;;28.40;14.93;;;11.30;88.30;;;;;;5109994;28;20455;-71
2021/04/22 02:00:29;;;;;;;25.23;14.60;;;11.40;88.30;;;;;;5109676;28;21123;-69
2021/04/22 02:02:55;;;;;;;24.17;14.37;;;11.40;89.20;;;;;;5098845;28;20206;-69
2021/04/22 02:05:21;;;;;;;28.70;15.53;;;11.30;88.60;;;;;;5094468;28;20489;-70
2021/04/22 02:07:49;;;;;;;23.67;14.07;;;11.30;87.70;;;;;;5100419;28;20471;-69
2021/04/22 02:10:15;;;;;;;38.83;15.80;;;11.30;88.40;;;;;;5105110;28;20445;-70
2021/04/22 02:12:40;;;;;;;26.40;15.03;;;11.40;88.90;;;;;;5090164;28;21001;-68
2021/04/22 02:15:09;;;;;;;29.47;15.50;;;11.40;88.70;;;;;;5103355;28;20429;-69
2021/04/22 02:17:35;;;;;;;29.07;16.10;;;11.40;88.60;;;;;;5089707;28;20179;-69
2021/04/22 02:20:03;;;;;;;32.20;17.17;;;11.40;88.90;;;;;;5089959;28;20822;-70
2021/04/22 02:22:28;;;;;;;28.73;17.20;;;11.40;88.30;;;;;;5090064;28;20429;-69
2021/04/22 02:24:54;;;;;;;33.90;16.17;;;11.30;88.70;;;;;;5091252;28;20454;-69
2021/04/22 02:27:20;;;;;;;32.73;18.00;;;11.30;88.90;;;;;;5102098;28;20597;-69
2021/04/22 02:29:45;;;;;;;39.17;21.77;;;11.30;88.70;;;;;;5089989;28;20268;-72
2021/04/22 02:32:11;;;;;;;33.07;19.83;;;11.20;88.00;;;;;;5089454;28;20874;-69
2021/04/22 02:34:38;;;;;;;35.30;19.87;;;11.10;87.70;;;;;;5096313;28;20190;-71
2021/04/22 02:37:04;;;;;;;40.67;21.90;;;11.20;87.40;;;;;;5110617;28;20186;-69
2021/04/22 02:39:30;;;;;;;42.30;20.60;;;11.20;87.30;;;;;;5109632;28;20465;-70
2021/04/22 02:41:56;;;;;;;39.83;20.57;;;11.30;87.30;;;;;;5095747;28;20494;-72
2021/04/22 02:44:21;;;;;;;39.63;19.90;;;11.30;87.10;;;;;;5109989;28;20206;-68
2021/04/22 02:46:47;;;;;;;38.47;20.70;;;11.30;86.30;;;;;;5111547;28;20210;-69
2021/04/22 02:49:13;;;;;;;44.23;23.03;;;11.10;85.90;;;;;;5095774;28;20179;-71
2021/04/22 02:51:38;;;;;;;50.23;23.83;;;11.20;86.20;;;;;;5090788;28;20211;-70
2021/04/22 02:54:04;;;;;;;49.13;24.00;;;11.20;84.70;;;;;;5094904;28;20255;-71
2021/04/22 02:56:30;;;;;;;46.07;22.47;;;11.20;84.60;;;;;;5110352;28;20659;-71
2021/04/22 02:58:56;;;;;;;45.27;23.70;;;11.20;84.10;;;;;;5110307;28;20456;-69
2021/04/22 03:01:21;;;;;;;47.90;24.20;;;11.10;84.70;;;;;;5110824;28;20202;-69
2021/04/22 03:03:47;;;;;;;42.90;22.80;;;11.00;85.00;;;;;;5111761;28;20210;-72
2021/04/22 03:06:13;;;;;;;51.37;25.60;;;10.90;85.60;;;;;;5098512;28;20237;-70
2021/04/22 03:08:38;;;;;;;50.10;23.27;;;10.90;86.00;;;;;;5111868;28;20601;-70
2021/04/22 03:11:04;;;;;;;49.40;25.03;;;10.90;85.60;;;;;;5111175;28;20202;-68
2021/04/22 03:13:31;;;;;;;48.00;24.70;;;10.80;86.30;;;;;;5109435;28;20198;-70
2021/04/22 03:15:57;;;;;;;46.50;23.20;;;10.80;86.60;;;;;;5109758;28;20178;-70
2021/04/22 03:18:22;;;;;;;49.37;24.60;;;10.80;86.30;;;;;;5104113;28;21101;-68
2021/04/22 03:20:48;;;;;;;44.13;22.80;;;10.80;85.70;;;;;;5102533;28;20270;-70
2021/04/22 03:23:14;;;;;;;44.97;23.30;;;10.70;85.20;;;;;;5090851;28;20219;-70
2021/04/22 03:25:40;;;;;;;48.63;24.13;;;10.70;84.70;;;;;;5089429;28;20421;-71
2021/04/22 03:28:05;;;;;;;38.73;20.47;;;10.70;85.60;;;;;;5094601;28;20916;-69
2021/04/22 03:30:33;;;;;;;46.17;23.80;;;10.70;84.90;;;;;;5099072;28;20203;-70
2021/04/22 03:32:59;;;;;;;44.47;23.80;;;10.60;84.70;;;;;;5092530;28;20191;-67
2021/04/22 03:35:25;;;;;;;42.30;21.00;;;10.50;85.70;;;;;;5098462;28;20963;-69
2021/04/22 03:37:51;;;;;;;40.90;22.03;;;10.50;85.50;;;;;;5102824;28;20705;-70
2021/04/22 03:40:19;;;;;;;41.70;21.70;;;10.40;84.70;;;;;;5097581;28;20944;-69
2021/04/22 03:42:45;;;;;;;45.10;22.70;;;10.50;85.00;;;;;;5108898;28;20431;-72
2021/04/22 03:45:12;;;;;;;42.60;22.57;;;10.40;85.50;;;;;;5109513;28;20444;-70
2021/04/22 03:47:39;;;;;;;39.07;20.00;;;10.20;85.90;;;;;;5107608;28;20420;-71
2021/04/22 03:50:07;;;;;;;43.20;20.70;;;10.10;86.20;;;;;;5109075;28;20523;-71
2021/04/22 03:52:33;;;;;;;38.97;21.93;;;10.20;86.50;;;;;;5108957;28;20428;-70
2021/04/22 03:54:59;;;;;;;37.87;20.80;;;10.20;86.30;;;;;;5109596;28;20417;-69
2021/04/22 03:57:25;;;;;;;38.03;20.83;;;10.20;86.00;;;;;;5113083;28;20423;-69
2021/04/22 03:59:50;;;;;;;38.37;20.53;;;10.10;85.00;;;;;;5111942;28;20214;-71
2021/04/22 04:02:18;;;;;;;38.63;20.50;;;10.00;85.90;;;;;;5099297;28;20466;-70
2021/04/22 04:04:44;;;;;;;44.67;23.10;;;10.00;85.90;;;;;;5113294;28;20823;-71
2021/04/22 04:07:10;;;;;;;36.60;20.83;;;10.00;86.50;;;;;;5112552;28;20511;-70
2021/04/22 04:09:35;;;;;;;39.97;20.87;;;9.90;86.30;;;;;;5112264;28;20527;-66
2021/04/22 04:12:01;;;;;;;37.13;19.80;;;9.90;86.90;;;;;;5111288;28;20585;-69
2021/04/22 04:14:27;;;;;;;36.80;21.03;;;9.90;86.90;;;;;;5097416;28;20187;-71
2021/04/22 04:16:53;;;;;;;41.97;21.03;;;9.90;86.30;;;;;;5090073;28;20283;-72
2021/04/22 04:19:18;;;;;;;33.37;19.70;;;9.90;86.60;;;;;;5089316;28;20195;-70
2021/04/22 04:21:44;;;;;;;42.27;21.40;;;9.80;86.30;;;;;;5109307;28;20280;-67
2021/04/22 04:24:10;;;;;;;37.00;19.03;;;9.70;86.50;;;;;;5110743;28;20297;-68
2021/04/22 04:26:36;;;;;;;40.20;20.43;;;9.70;86.90;;;;;;5111307;28;20193;-70
2021/04/22 04:29:02;;;;;;;44.63;21.40;;;9.70;86.80;;;;;;5112022;28;20436;-68
2021/04/22 04:31:28;;;;;;;39.80;19.90;;;9.60;86.60;;;;;;5105081;28;20210;-71
2021/04/22 04:33:53;;;;;;;42.43;19.93;;;9.60;86.20;;;;;;5106187;28;20420;-70
2021/04/22 04:36:19;;;;;;;46.17;21.03;;;9.60;86.20;;;;;;5099489;28;20662;-69
2021/04/22 04:38:45;;;;;;;39.80;20.57;;;9.60;86.20;;;;;;5102444;28;20246;-70
2021/04/22 04:41:11;;;;;;;42.93;22.30;;;9.50;86.50;;;;;;5105618;28;20231;-69
2021/04/22 04:43:36;;;;;;;38.70;20.63;;;9.50;86.50;;;;;;5105453;28;20728;-69
2021/04/22 04:46:02;;;;;;;34.83;19.20;;;9.40;87.00;;;;;;5098728;28;20183;-71
2021/04/22 04:48:28;;;;;;;41.50;20.97;;;9.50;87.00;;;;;;5101307;28;20184;-72
2021/04/22 04:50:53;;;;;;;47.77;24.23;;;9.50;86.90;;;;;;5110813;28;20229;-70
2021/04/22 04:53:19;;;;;;;36.33;20.50;;;9.60;86.20;;;;;;5112337;28;20268;-70
2021/04/22 04:55:45;;;;;;;44.13;22.23;;;9.60;85.70;;;;;;5112406;28;20186;-69
2021/04/22 04:58:10;;;;;;;37.57;18.80;;;9.60;85.50;;;;;;5112690;28;20191;-70
2021/04/22 05:00:36;;;;;;;38.43;19.43;;;9.60;85.90;;;;;;5112216;28;20214;-71
2021/04/22 05:03:02;;;;;;;44.23;22.00;;;9.60;86.50;;;;;;5112664;28;20217;-71
2021/04/22 05:05:28;;;;;;;40.10;20.80;;;9.70;86.20;;;;;;5112842;28;20191;-70
2021/04/22 05:07:54;;;;;;;44.87;21.93;;;9.70;85.70;;;;;;5111576;28;20183;-69
2021/04/22 05:10:19;;;;;;;40.63;22.27;;;9.50;86.30;;;;;;5092325;28;20215;-70
2021/04/22 05:12:45;;;;;;;48.63;23.27;;;9.30;86.80;;;;;;5091122;28;20184;-71
2021/04/22 05:15:11;;;;;;;42.80;22.17;;;9.30;87.30;;;;;;5104841;28;20352;-71
2021/04/22 05:17:37;;;;;;;45.50;23.17;;;9.30;87.60;;;;;;5090866;28;20198;-69
2021/04/22 05:20:07;;;;;;;42.33;22.57;;;9.20;87.30;;;;;;5090784;28;20441;-70
2021/04/22 05:22:33;;;;;;;43.47;20.90;;;9.30;87.40;;;;;;5090984;28;20586;-71
2021/04/22 05:24:59;;;;;;;41.30;22.20;;;9.50;87.00;;;;;;5111641;28;20428;-68
2021/04/22 05:27:24;;;;;;;43.00;21.63;;;9.60;86.80;;;;;;5111782;28;20679;-70
2021/04/22 05:29:50;;;;;;;37.87;19.33;;;9.50;86.20;;;;;;5111760;28;20472;-71
2021/04/22 05:32:17;;;;;;;38.60;20.23;;;9.60;86.20;;;;;;5110745;28;20182;-72
2021/04/22 05:34:43;;;;;;;40.67;21.30;;;9.60;86.20;;;;;;5092100;28;20516;-72
2021/04/22 05:37:08;;;;;;;33.30;18.93;;;9.80;85.90;;;;;;5091225;28;20863;-68
2021/04/22 05:39:34;;;;;;;36.13;19.63;;;9.90;85.50;;;;;;5099489;28;20194;-71
2021/04/22 05:42:00;;;;;;;42.33;21.20;;;9.90;84.90;;;;;;5112067;28;20689;-69
2021/04/22 05:44:26;;;;;;;41.00;20.30;;;9.80;85.00;;;;;;5113084;28;20281;-70
2021/04/22 05:46:52;;;;;;;40.40;21.13;;;9.70;85.50;;;;;;5112270;28;20757;-68
2021/04/22 05:49:17;;;;;;;47.93;21.97;;;9.70;85.60;;;;;;5111732;28;20503;-69
2021/04/22 05:51:43;;;;;;;35.47;20.30;;;9.50;85.90;;;;;;5111848;28;20186;-69
2021/04/22 05:54:10;;;;;;;40.93;22.37;;;9.60;86.60;;;;;;5104283;28;20187;-68
2021/04/22 05:56:36;;;;;;;39.80;21.27;;;9.40;86.30;;;;;;5090008;28;20190;-70
2021/04/22 05:59:02;;;;;;;45.00;21.03;;;9.50;86.80;;;;;;5090027;28;20428;-69
2021/04/22 06:01:28;;;;;;;38.60;19.67;;;9.40;86.80;;;;;;5090582;28;20453;-69
2021/04/22 06:03:53;;;;;;;41.03;19.87;;;9.50;86.80;;;;;;5088943;28;20543;-70
2021/04/22 06:06:19;;;;;;;37.70;20.90;;;9.60;86.20;;;;;;5090069;28;20183;-66
2021/04/22 06:08:47;;;;;;;44.70;22.20;;;9.40;86.20;;;;;;5090105;28;20816;-69
2021/04/22 06:11:12;;;;;;;39.73;20.47;;;9.40;86.50;;;;;;5089982;28;20586;-69
2021/04/22 06:13:38;;;;;;;37.10;21.60;;;9.40;86.30;;;;;;5088980;28;20437;-68
2021/04/22 06:16:04;;;;;;;44.13;23.07;;;9.30;86.50;;;;;;5090528;28;20520;-69
2021/04/22 06:18:30;;;;;;;40.53;21.10;;;9.20;87.00;;;;;;5095831;28;20269;-68
2021/04/22 06:20:56;;;;;;;47.20;23.10;;;9.20;87.70;;;;;;5097562;28;20574;-72
2021/04/22 06:23:22;;;;;;;42.60;20.90;;;9.30;87.30;;;;;;5091190;28;20214;-70
2021/04/22 06:25:47;;;;;;;39.07;20.30;;;9.30;87.70;;;;;;5090883;28;20186;-68
2021/04/22 06:28:15;;;;;;;40.97;20.43;;;9.30;87.00;;;;;;5088309;28;20883;-70
2021/04/22 06:30:40;;;;;;;42.47;20.17;;;9.40;86.80;;;;;;5088560;28;20205;-69
2021/04/22 06:33:06;;;;;;;40.63;21.20;;;9.60;86.60;;;;;;5091366;28;20440;-69
2021/04/22 06:35:32;;;;;;;43.63;20.67;;;9.60;86.20;;;;;;5105187;28;20186;-70
2021/04/22 06:37:57;;;;;;;49.53;22.73;;;9.60;86.20;;;;;;5091457;28;20547;-69
2021/04/22 06:40:24;;;;;;;45.57;19.80;;;9.40;85.90;;;;;;5089474;28;20355;-70
2021/04/22 06:42:51;;;;;;;52.07;21.27;;;9.60;85.60;;;;;;5090707;28;20202;-70
2021/04/22 06:45:18;;;;;;;40.20;19.20;;;9.60;85.60;;;;;;5092325;28;20445;-69
2021/04/22 06:47:46;;;;;;;39.90;19.50;;;9.30;85.30;;;;;;5121664;28;20429;-70
2021/04/22 06:50:14;;;;;;;43.43;19.63;;;9.30;86.00;;;;;;5123901;28;20440;-68
2021/04/22 06:52:40;;;;;;;40.63;19.33;;;9.10;87.60;;;;;;5113814;27;20511;-70
2021/04/22 06:55:10;;;;;;;43.83;19.97;;;9.10;86.80;;;;;;5096270;28;20497;-71
2021/04/22 06:57:36;;;;;;;35.67;20.77;;;9.10;86.50;;;;;;5109645;28;20412;-70
2021/04/22 07:00:06;;;;;;;35.50;17.30;;;9.10;85.50;;;;;;5110417;28;20443;-71
2021/04/22 07:02:32;;;;;;;46.67;17.30;;;9.20;85.90;;;;;;5109775;28;20616;-71
2021/04/22 07:04:58;;;;;;;34.77;19.20;;;9.10;85.70;;;;;;5111235;28;20472;-70
2021/04/22 07:07:23;;;;;;;33.57;18.07;;;9.20;85.60;;;;;;5113511;28;20668;-69
2021/04/22 07:09:49;;;;;;;34.50;18.70;;;9.50;85.50;;;;;;5111458;28;20207;-70
2021/04/22 07:12:15;;;;;;;38.27;18.97;;;9.50;83.70;;;;;;5108806;28;20205;-69
2021/04/22 07:14:40;;;;;;;40.83;20.23;;;9.20;84.70;;;;;;5109266;28;20358;-70
2021/04/22 07:17:06;;;;;;;45.70;18.73;;;9.20;85.60;;;;;;5088845;28;20183;-70
2021/04/22 07:19:32;;;;;;;36.20;18.30;;;9.00;86.20;;;;;;5088941;28;20186;-69
2021/04/22 07:21:59;;;;;;;36.87;18.50;;;9.20;85.90;;;;;;5088827;28;20187;-71
2021/04/22 07:24:24;;;;;;;40.23;16.90;;;9.20;85.20;;;;;;5087569;28;20211;-70
2021/04/22 07:26:50;;;;;;;34.43;16.87;;;9.60;84.90;;;;;;5097691;28;20423;-69
2021/04/22 07:29:16;;;;;;;35.83;18.10;;;9.70;83.60;;;;;;5108968;28;20194;-72
2021/04/22 07:31:41;;;;;;;38.83;18.20;;;9.70;83.30;;;;;;5111411;28;20206;-68
2021/04/22 07:34:07;;;;;;;39.27;18.87;;;9.90;83.30;;;;;;5112230;28;20182;-70
2021/04/22 07:36:33;;;;;;;41.90;18.97;;;9.70;82.40;;;;;;5112834;28;20209;-71
2021/04/22 07:39:00;;;;;;;37.27;17.50;;;9.50;83.00;;;;;;5113335;28;20182;-72
2021/04/22 07:41:26;;;;;;;36.80;16.37;;;9.30;84.10;;;;;;5113497;28;20208;-68
2021/04/22 07:43:52;;;;;;;31.17;15.20;;;9.70;83.60;;;;;;5113978;28;20463;-70
2021/04/22 07:46:17;;;;;;;32.63;17.30;;;9.90;82.10;;;;;;5113604;28;20239;-70
2021/04/22 07:48:43;;;;;;;38.10;17.00;;;9.90;81.70;;;;;;5113719;28;20412;-70
2021/04/22 07:51:09;;;;;;;32.90;16.83;;;9.90;80.60;;;;;;5114255;28;20222;-72
2021/04/22 07:53:34;;;;;;;27.50;15.30;;;9.90;80.90;;;;;;5113739;28;20206;-69
2021/04/22 07:56:01;;;;;;;28.47;15.07;;;10.00;81.10;;;;;;5105788;28;20278;-69
2021/04/22 07:58:27;;;;;;;30.47;16.53;;;10.30;79.50;;;;;;5116302;28;20231;-72
2021/04/22 08:00:52;;;;;;;37.70;15.30;;;10.10;79.60;;;;;;5098405;28;20976;-71
2021/04/22 08:03:18;;;;;;;35.53;15.60;;;10.30;79.20;;;;;;5111946;28;21018;-71
2021/04/22 08:05:46;;;;;;;35.80;15.60;;;10.40;77.70;;;;;;5115672;28;20556;-70
2021/04/22 08:08:14;;;;;;;27.27;14.83;;;10.10;78.10;;;;;;5110426;28;21006;-70
2021/04/22 08:10:43;;;;;;;33.50;15.73;;;10.00;78.70;;;;;;5091794;28;20460;-70
2021/04/22 08:13:10;;;;;;;36.73;16.67;;;9.90;79.30;;;;;;5094831;28;20563;-72
2021/04/22 08:15:39;;;;;;;36.27;16.50;;;9.80;79.60;;;;;;5092927;28;20512;-69
2021/04/22 08:18:09;;;;;;;32.43;15.73;;;9.70;79.60;;;;;;5092980;28;20425;-72
2021/04/22 08:20:35;;;;;;;30.23;14.47;;;9.70;79.70;;;;;;5092822;28;20574;-70
2021/04/22 08:23:03;;;;;;;33.00;15.67;;;9.90;78.40;;;;;;5095933;28;20560;-70
2021/04/22 08:25:35;;;;;;;31.63;15.47;;;9.70;78.40;;;;;;5076031;28;20442;-72
2021/04/22 08:28:01;;;;;;;31.13;13.47;;;9.70;79.20;;;;;;5094074;28;20448;-69
2021/04/22 08:30:31;;;;;;;30.63;14.83;;;10.00;78.30;;;;;;5094172;28;20498;-69
2021/04/22 08:33:01;;;;;;;26.03;14.07;;;10.20;75.90;;;;;;5094480;28;20429;-71
2021/04/22 08:35:27;;;;;;;26.30;12.90;;;10.30;75.50;;;;;;5094757;28;20467;-71
2021/04/22 08:37:53;;;;;;;23.73;12.87;;;10.20;75.70;;;;;;5092847;28;20425;-71
2021/04/22 08:40:19;;;;;;;33.63;13.90;;;10.20;75.70;;;;;;5093162;28;20445;-70
2021/04/22 08:42:45;;;;;;;28.43;13.60;;;10.40;75.70;;;;;;5099632;28;20421;-70
2021/04/22 08:45:15;;;;;;;28.70;13.27;;;10.60;74.60;;;;;;5099797;28;20429;-69
2021/04/22 08:47:42;;;;;;;30.23;12.90;;;10.30;74.50;;;;;;5110902;28;20794;-71
2021/04/22 08:50:13;;;;;;;25.73;13.33;;;10.50;75.20;;;;;;5111358;28;20479;-70
2021/04/22 08:52:39;;;;;;;26.20;12.63;;;10.30;74.20;;;;;;5099051;28;20412;-70
2021/04/22 08:55:07;;;;;;;26.77;12.50;;;10.40;73.20;;;;;;5113842;28;20423;-71
2021/04/22 08:57:33;;;;;;;26.27;13.20;;;10.50;73.20;;;;;;5113260;28;20208;-71
2021/04/22 08:59:59;;;;;;;24.90;12.47;;;10.40;71.80;;;;;;5101125;28;20452;-73
2021/04/22 09:02:25;;;;;;;25.30;13.47;;;10.10;74.30;;;;;;5100095;28;20186;-71
2021/04/22 09:04:51;;;;;;;25.77;13.30;;;10.10;73.30;;;;;;5099682;28;20203;-71
2021/04/22 09:07:17;;;;;;;22.23;11.10;;;10.20;73.30;;;;;;5092705;28;20428;-68
2021/04/22 09:09:43;;;;;;;32.50;15.87;;;10.30;73.00;;;;;;5091425;28;20207;-71
2021/04/22 09:12:20;;;;;;;27.93;12.93;;;10.30;71.70;;;;;;5113740;28;20916;-71
2021/04/22 09:15:03;;;;;;;22.10;11.70;;;10.40;72.60;;;;;;5113565;28;20503;-69
2021/04/22 09:17:29;;;;;;;31.40;13.63;;;10.90;71.60;;;;;;5113684;28;20449;-72
2021/04/22 09:19:55;;;;;;;26.30;14.53;;;11.00;70.20;;;;;;5113243;28;20469;-69
2021/04/22 09:22:32;;;;;;;31.07;12.73;;;10.40;72.00;;;;;;5112778;28;20515;-72
2021/04/22 09:24:58;;;;;;;31.40;13.60;;;10.60;73.00;;;;;;5113626;28;20471;-69
2021/04/22 09:27:24;;;;;;;20.17;11.13;;;11.00;72.00;;;;;;5112762;28;20409;-72
2021/04/22 09:29:53;;;;;;;24.67;13.67;;;11.20;70.40;;;;;;5113178;28;20226;-72
2021/04/22 09:32:28;;;;;;;25.80;12.93;;;11.40;69.50;;;;;;5113065;28;20424;-70
2021/04/22 09:34:57;;;;;;;21.27;12.90;;;11.40;67.90;;;;;;5106670;28;20419;-71
2021/04/22 09:37:41;;;;;;;23.43;11.80;;;11.00;68.60;;;;;;5116212;28;20432;-70
2021/04/22 09:40:17;;;;;;;28.97;12.73;;;11.10;69.10;;;;;;5112077;28;20440;-71
2021/04/22 09:42:44;;;;;;;25.07;11.23;;;11.10;68.30;;;;;;5112212;28;20657;-69
2021/04/22 09:45:16;;;;;;;20.93;11.97;;;11.10;68.00;;;;;;5112306;28;20420;-71
2021/04/22 09:47:42;;;;;;;19.40;11.20;;;11.30;67.70;;;;;;5113088;28;20520;-70
2021/04/22 09:50:14;;;;;;;19.07;9.80;;;11.20;66.30;;;;;;5100293;28;20969;-71
2021/04/22 09:52:43;;;;;;;17.50;10.13;;;11.30;66.60;;;;;;5099210;28;20408;-69
2021/04/22 09:55:14;;;;;;;22.50;10.60;;;11.20;65.40;;;;;;5113158;28;20412;-69
2021/04/22 09:57:41;;;;;;;21.03;9.47;;;11.40;65.80;;;;;;5114704;28;20412;-70
2021/04/22 10:00:18;;;;;;;21.40;10.17;;;11.80;64.80;;;;;;5112054;28;20439;-69
2021/04/22 10:02:56;;;;;;;16.47;8.83;;;11.40;61.50;;;;;;5111889;28;20935;-69
2021/04/22 10:05:33;;;;;;;18.50;9.17;;;11.10;62.60;;;;;;5106383;28;20429;-72
2021/04/22 10:08:14;;;;;;;19.50;8.83;;;11.40;62.80;;;;;;5092772;28;20523;-71
2021/04/22 10:10:54;;;;;;;20.60;8.67;;;11.40;59.60;;;;;;5092145;28;20441;-70
2021/04/22 10:13:20;;;;;;;19.57;8.17;;;11.00;59.90;;;;;;5109445;28;20416;-72
2021/04/22 10:15:54;;;;;;;14.60;8.20;;;11.10;60.60;;;;;;5111031;28;20998;-70
2021/04/22 10:18:20;;;;;;;21.13;7.70;;;11.20;59.10;;;;;;5110012;28;20420;-71
2021/04/22 10:20:48;;;;;;;17.87;8.30;;;11.00;59.60;;;;;;5110872;28;20436;-72
2021/04/22 10:23:14;;;;;;;18.23;7.90;;;11.10;58.70;;;;;;5109788;28;20484;-71
2021/04/22 10:25:43;;;;;;;15.83;7.50;;;11.00;58.40;;;;;;5111030;28;20441;-71
2021/04/22 10:28:13;;;;;;;20.57;7.80;;;10.90;58.40;;;;;;5110546;28;20458;-70
2021/04/22 10:30:41;;;;;;;19.70;6.70;;;11.00;56.40;;;;;;5110731;28;20569;-70
2021/04/22 10:33:08;;;;;;;14.90;7.87;;;11.20;56.20;;;;;;5115924;28;20459;-70
2021/04/22 10:35:36;;;;;;;16.10;7.13;;;11.80;55.40;;;;;;5115507;28;20427;-70
2021/04/22 10:38:04;;;;;;;12.20;7.07;;;11.90;52.90;;;;;;5103468;28;20798;-71
2021/04/22 10:40:35;;;;;;;11.33;6.30;;;12.10;51.70;;;;;;5089423;28;20451;-69
2021/04/22 10:43:05;;;;;;;12.20;6.30;;;12.30;52.00;;;;;;5109749;28;20417;-72
2021/04/22 10:45:32;;;;;;;14.00;5.17;;;12.90;50.20;;;;;;5109923;28;20412;-71
2021/04/22 10:47:58;;;;;;;17.00;5.83;;;13.00;43.80;;;;;;5109657;28;20434;-69
2021/04/22 10:50:29;;;;;;;8.30;4.23;;;13.50;44.60;;;;;;5107069;28;20451;-69
2021/04/22 10:52:57;;;;;;;10.83;5.63;;;13.80;41.50;;;;;;5099477;28;20916;-71
2021/04/22 10:55:27;;;;;;;10.13;5.80;;;12.30;42.60;;;;;;5109719;28;20424;-71
2021/04/22 10:57:55;;;;;;;12.23;5.03;;;12.10;45.40;;;;;;5108516;28;20446;-70
2021/04/22 11:00:26;;;;;;;9.43;4.63;;;12.90;44.90;;;;;;5109517;28;20449;-70
2021/04/22 11:02:55;;;;;;;9.20;4.33;;;13.20;43.50;;;;;;5110074;28;20416;-70
2021/04/22 11:05:29;;;;;;;11.27;5.00;;;13.70;40.80;;;;;;5109719;28;20424;-69
2021/04/22 11:08:04;;;;;;;7.73;4.13;;;13.50;40.80;;;;;;5108306;28;20456;-69
2021/04/22 11:10:42;;;;;;;9.67;4.53;;;13.40;41.40;;;;;;5097088;28;20444;-71
2021/04/22 11:13:31;;;;;;;10.10;3.93;;;13.70;40.30;;;;;;5097804;28;20508;-72
2021/04/22 11:16:06;;;;;;;8.00;3.80;;;12.90;37.40;;;;;;5102419;28;20466;-71
2021/04/22 11:18:45;;;;;;;9.90;4.80;;;12.80;40.00;;;;;;5110596;28;20423;-71
2021/04/22 11:21:36;;;;;;;8.33;4.50;;;12.80;41.50;;;;;;5109810;28;20475;-69
2021/04/22 11:24:03;;;;;;;7.73;4.23;;;12.50;42.30;;;;;;5099695;28;20977;-72
2021/04/22 11:26:38;;;;;;;9.60;3.97;;;13.20;40.00;;;;;;5090058;28;20959;-71
2021/04/22 11:29:18;;;;;;;14.80;4.20;;;13.30;37.10;;;;;;5103785;28;20958;-70
2021/04/22 11:31:54;;;;;;;11.70;4.10;;;13.90;37.40;;;;;;5109818;28;20465;-70
2021/04/22 11:34:35;;;;;;;11.47;5.60;;;13.70;37.80;;;;;;5109990;28;20427;-71
2021/04/22 11:37:11;;;;;;;7.17;3.83;;;12.90;38.00;;;;;;5109309;28;20446;-71
2021/04/22 11:39:37;;;;;;;8.27;4.00;;;13.30;36.40;;;;;;5097653;28;20440;-70
2021/04/22 11:42:03;;;;;;;10.03;4.17;;;13.50;38.00;;;;;;5110672;28;20474;-71
2021/04/22 11:44:35;;;;;;;11.37;4.40;;;13.90;37.80;;;;;;5111434;28;20211;-70
2021/04/22 11:47:12;;;;;;;7.90;4.57;;;14.00;37.50;;;;;;5111331;28;20435;-72
2021/04/22 11:49:37;;;;;;;10.13;5.07;;;14.40;37.20;;;;;;5089094;28;20424;-70
2021/04/22 11:52:15;;;;;;;9.60;4.07;;;14.50;36.00;;;;;;5088137;28;20420;-73
2021/04/22 11:54:40;;;;;;;9.20;4.50;;;14.60;34.70;;;;;;5103627;28;20252;-75
2021/04/22 11:57:07;;;;;;;10.60;5.00;;;14.10;35.70;;;;;;5099132;28;20416;-70
2021/04/22 11:59:34;;;;;;;9.37;4.90;;;14.00;36.00;;;;;;5111219;28;20186;-70
2021/04/22 12:02:12;;;;;;;12.70;4.57;;;14.30;36.40;;;;;;5095763;28;20421;-71
2021/04/22 12:04:46;;;;;;;9.20;4.40;;;14.20;37.50;;;;;;5091296;28;20484;-70
2021/04/22 12:07:21;;;;;;;10.17;4.40;;;14.60;36.40;;;;;;5097813;28;20412;-70
2021/04/22 12:09:51;;;;;;;5.70;3.83;;;14.70;34.90;;;;;;5110082;28;20431;-69
2021/04/22 12:12:26;;;;;;;9.37;4.17;;;15.20;33.20;;;;;;5108595;28;20515;-71
2021/04/22 12:14:55;;;;;;;10.30;4.23;;;14.90;33.90;;;;;;5110364;28;20451;-69
2021/04/22 12:17:31;;;;;;;12.40;4.57;;;15.10;33.70;;;;;;5112251;28;21236;-72
2021/04/22 12:19:59;;;;;;;12.03;3.83;;;15.00;33.90;;;;;;5112303;28;20476;-70
2021/04/22 12:22:32;;;;;;;9.50;3.83;;;15.10;33.50;;;;;;5112974;28;20448;-73
2021/04/22 12:24:59;;;;;;;9.40;5.30;;;14.90;34.00;;;;;;5112879;28;20459;-69
2021/04/22 12:27:31;;;;;;;11.57;5.00;;;14.60;36.60;;;;;;5098587;28;20868;-68
2021/04/22 12:29:57;;;;;;;6.37;4.57;;;14.70;37.50;;;;;;5097875;28;20890;-71
2021/04/22 12:32:23;;;;;;;10.00;4.67;;;13.90;37.20;;;;;;5112378;28;20455;-70
2021/04/22 12:34:49;;;;;;;10.60;4.77;;;14.00;38.40;;;;;;5112519;28;20930;-70
2021/04/22 12:37:15;;;;;;;12.27;4.77;;;14.70;38.20;;;;;;5111947;28;20467;-71